Holly Pond, Alabama
Current Conditions -  °F | °C
As of 11:15 AM on Friday 28 Nov 2014 (Local Time) from KCMD Reporting Station
Clear Clear  
Wind Chill: 37°   Ceiling: Unl
Heat Index: 41°   Visibility: 10mi
Dew Point: 21°   Wind: 6mph
Humidity: 44%   Direction: 80°E
Pressure: 30.4"   Gusts: NA
Location:  34.17°N, 86.62°W
Report Text: KCMD 281715Z AUTO 08005KT 10SM CLR 05/M06 A3040 RMK AO2 T00511062
Loading
Personal Weather Stations






























Interactive Weather Map New forecast layout! Learn more

10-Day Weather Forecast

Advertisements
Track Severe Weather on mobile